Arcadia, South Carolina
Current Conditions -  °F | °C
As of 3:35 AM on Sunday 26 Oct 2014 (Local Time) from KSPA Reporting Station
Clear Clear  
Wind Chill: 15°   Ceiling: Unl
Heat Index: 15°   Visibility: 10mi
Dew Point: 10°   Wind: 0mph
Humidity: 72%   Direction: NA
Pressure: 29.93"   Gusts: NA
Location:  34.96°N, 81.99°W
Report Text: KSPA 260735Z AUTO 00000KT 10SM CLR 15/10 A2993 RMK AO2
Loading
Personal Weather Stations






























Interactive Weather Map
Tropical Storm Tracking
New forecast layout! Learn more

10-Day Weather Forecast

Advertisements
Track Severe Weather on mobile